Time;durP1;ratioP1;P1;durP2;ratioP2;P2;SDS_P1;SDS_P2;PMS_P1;PMS_P2;Temp;Humidity;BMP_temperature;BMP_pressure;BME280_temperature;BME280_humidity;BME280_pressure;Samples;Min_cycle;Max_cycle;Signal;HPM_P1;HPM_P2
2022/06/05 00:02:08;;;;;;;6.32;4.22;;;;;;;;;;4754305;30;20128;-54
2022/06/05 00:04:51;;;;;;;5.65;4.45;;;;;;;;;;4754263;30;20115;-53
2022/06/05 00:07:37;;;;;;;7.82;4.40;;;;;;;;;;4754162;30;20044;-54
2022/06/05 00:10:18;;;;;;;6.40;4.10;;;;;;;;;;4754008;30;20056;-53
2022/06/05 00:12:52;;;;;;;6.45;3.80;;;;;;;;;;4754045;30;20060;-48
2022/06/05 00:15:20;;;;;;;6.97;4.30;;;;;;;;;;4754121;30;20127;-53
2022/06/05 00:17:47;;;;;;;6.05;4.40;;;;;;;;;;4753996;30;20568;-52
2022/06/05 00:20:15;;;;;;;5.47;4.05;;;;;;;;;;4753921;30;20056;-53
2022/06/05 00:22:42;;;;;;;7.85;4.45;;;;;;;;;;4753900;30;20044;-54
2022/06/05 00:25:10;;;;;;;7.18;3.70;;;;;;;;;;4753986;30;20055;-54
2022/06/05 00:28:03;;;;;;;5.47;4.35;;;;;;;;;;4753914;30;20045;-52
2022/06/05 00:30:38;;;;;;;5.85;4.38;;;;;;;;;;4753703;30;20506;-48
2022/06/05 00:33:15;;;;;;;6.10;4.55;;;;;;;;;;4753878;30;20565;-48
2022/06/05 00:35:52;;;;;;;4.85;3.80;;;;;;;;;;4753752;30;20134;-52
2022/06/05 00:38:32;;;;;;;4.72;3.83;;;;;;;;;;4753625;30;20052;-45
2022/06/05 00:41:18;;;;;;;6.05;4.05;;;;;;;;;;4753580;30;20074;-45
2022/06/05 00:43:45;;;;;;;8.45;4.20;;;;;;;;;;4753603;30;20048;-55
2022/06/05 00:46:13;;;;;;;6.45;3.80;;;;;;;;;;4753534;30;20571;-51
2022/06/05 00:48:40;;;;;;;5.78;4.05;;;;;;;;;;4752386;30;20091;-47
2022/06/05 00:51:09;;;;;;;5.38;4.50;;;;;;;;;;4753373;30;20516;-53
2022/06/05 00:53:36;;;;;;;4.88;3.90;;;;;;;;;;4753426;30;20106;-53
2022/06/05 00:56:09;;;;;;;6.07;3.58;;;;;;;;;;4746189;30;20045;-48
2022/06/05 00:58:37;;;;;;;4.93;4.17;;;;;;;;;;4735663;30;20148;-51
2022/06/05 01:01:04;;;;;;;9.05;4.43;;;;;;;;;;4735718;30;20053;-49
2022/06/05 01:03:35;;;;;;;5.63;4.30;;;;;;;;;;4735498;30;20044;-54
2022/06/05 01:06:03;;;;;;;4.32;3.33;;;;;;;;;;4735713;30;20045;-52
2022/06/05 01:08:30;;;;;;;5.88;4.00;;;;;;;;;;4735088;30;20060;-49
2022/06/05 01:10:58;;;;;;;7.35;4.78;;;;;;;;;;4735696;30;20052;-52
2022/06/05 01:13:43;;;;;;;10.80;7.28;;;;;;;;;;4735736;30;20053;-51
2022/06/05 01:16:32;;;;;;;6.95;4.13;;;;;;;;;;4735479;30;20053;-54
2022/06/05 01:19:21;;;;;;;5.78;4.18;;;;;;;;;;4735395;30;20080;-51
2022/06/05 01:22:37;;;;;;;7.47;4.00;;;;;;;;;;4735281;30;20095;-54
2022/06/05 01:25:21;;;;;;;8.40;3.67;;;;;;;;;;4703042;30;20069;-54
2022/06/05 01:27:55;;;;;;;5.28;4.00;;;;;;;;;;4735375;30;20044;-54
2022/06/05 01:30:24;;;;;;;6.45;4.85;;;;;;;;;;4748783;30;20052;-54
2022/06/05 01:32:59;;;;;;;5.63;4.00;;;;;;;;;;4735109;30;20051;-51
2022/06/05 01:35:45;;;;;;;5.40;4.32;;;;;;;;;;4735593;30;20049;-54
2022/06/05 01:38:23;;;;;;;4.43;3.63;;;;;;;;;;4734829;30;20121;-55
2022/06/05 01:40:57;;;;;;;5.82;3.78;;;;;;;;;;4735082;30;20145;-55
2022/06/05 01:43:31;;;;;;;8.75;4.40;;;;;;;;;;4748598;30;20123;-55
2022/06/05 01:46:06;;;;;;;4.80;4.00;;;;;;;;;;4734977;30;20044;-51
2022/06/05 01:48:58;;;;;;;4.53;3.58;;;;;;;;;;4734828;30;20049;-55
2022/06/05 01:51:34;;;;;;;4.63;3.47;;;;;;;;;;4725639;30;20382;-54
2022/06/05 01:54:09;;;;;;;4.72;3.88;;;;;;;;;;4734876;30;20136;-52
2022/06/05 01:56:41;;;;;;;5.53;4.75;;;;;;;;;;4745546;30;20056;-53
2022/06/05 01:59:18;;;;;;;5.93;4.03;;;;;;;;;;4752157;30;20147;-55
2022/06/05 02:01:53;;;;;;;6.60;4.15;;;;;;;;;;4752195;30;20830;-53
2022/06/05 02:04:43;;;;;;;5.72;4.15;;;;;;;;;;4752271;30;20044;-54
2022/06/05 02:07:28;;;;;;;4.72;3.58;;;;;;;;;;4752087;30;20071;-55
2022/06/05 02:10:01;;;;;;;5.35;4.47;;;;;;;;;;4752265;30;20079;-55
2022/06/05 02:12:28;;;;;;;4.78;3.60;;;;;;;;;;4752127;30;20505;-50
2022/06/05 02:14:56;;;;;;;5.07;3.88;;;;;;;;;;4752225;30;20075;-54
2022/06/05 02:17:23;;;;;;;5.82;3.60;;;;;;;;;;4752120;30;20040;-55
2022/06/05 02:19:50;;;;;;;4.95;3.78;;;;;;;;;;4751529;30;20078;-53
2022/06/05 02:22:25;;;;;;;5.15;4.10;;;;;;;;;;4751686;30;20040;-54
2022/06/05 02:24:56;;;;;;;4.72;3.58;;;;;;;;;;4751832;30;20083;-54
2022/06/05 02:27:25;;;;;;;4.40;3.22;;;;;;;;;;4737893;30;20059;-54
2022/06/05 02:29:55;;;;;;;4.57;3.80;;;;;;;;;;4734125;30;20433;-53
2022/06/05 02:32:50;;;;;;;7.85;3.60;;;;;;;;;;4761578;30;20076;-51
2022/06/05 02:35:45;;;;;;;6.15;3.78;;;;;;;;;;4762103;30;20052;-56
2022/06/05 02:38:17;;;;;;;4.15;3.58;;;;;;;;;;4734131;30;20513;-55
2022/06/05 02:40:57;;;;;;;4.15;3.45;;;;;;;;;;4733968;30;20080;-54
2022/06/05 02:47:05;;;;;;;4.68;4.10;;;;;;;;;;4733360;30;20052;-53
2022/06/05 02:49:39;;;;;;;3.92;3.20;;;;;;;;;;4733917;30;20059;-55
2022/06/05 02:52:08;;;;;;;4.65;3.00;;;;;;;;;;4733943;30;20690;-54
2022/06/05 02:54:48;;;;;;;3.88;2.90;;;;;;;;;;4733881;30;20114;-52
2022/06/05 02:57:15;;;;;;;4.63;3.20;;;;;;;;;;4733817;30;20049;-52
2022/06/05 02:59:42;;;;;;;6.13;2.85;;;;;;;;;;4733820;30;20053;-54
2022/06/05 03:04:55;;;;;;;3.65;3.00;;;;;;;;;;4733458;30;20045;-54
2022/06/05 03:07:22;;;;;;;3.42;2.75;;;;;;;;;;4733660;30;20052;-56
2022/06/05 03:09:49;;;;;;;3.30;2.50;;;;;;;;;;4733804;30;20044;-54
2022/06/05 03:12:16;;;;;;;3.85;2.78;;;;;;;;;;4733635;30;20049;-55
2022/06/05 03:14:43;;;;;;;2.92;2.00;;;;;;;;;;4733540;30;20452;-53
2022/06/05 03:17:11;;;;;;;3.97;2.47;;;;;;;;;;4733512;30;20579;-53
2022/06/05 03:19:38;;;;;;;3.17;2.35;;;;;;;;;;4733281;30;20076;-54
2022/06/05 03:22:05;;;;;;;4.43;2.53;;;;;;;;;;4733679;30;20048;-54
2022/06/05 03:24:32;;;;;;;3.45;2.30;;;;;;;;;;4733414;30;20057;-49
2022/06/05 03:26:59;;;;;;;3.25;2.55;;;;;;;;;;4732694;30;20111;-55
2022/06/05 03:29:26;;;;;;;2.97;2.20;;;;;;;;;;4733406;30;20060;-52
2022/06/05 03:31:54;;;;;;;5.07;3.35;;;;;;;;;;4733078;30;20048;-55
2022/06/05 03:34:21;;;;;;;3.75;1.90;;;;;;;;;;4761356;30;20509;-53
2022/06/05 03:36:49;;;;;;;3.92;2.03;;;;;;;;;;4733176;30;20560;-52
2022/06/05 03:39:16;;;;;;;3.10;2.30;;;;;;;;;;4733241;30;20140;-55
2022/06/05 03:41:46;;;;;;;3.60;2.33;;;;;;;;;;4733295;30;20051;-51
2022/06/05 03:44:13;;;;;;;2.55;2.00;;;;;;;;;;4733131;30;20505;-48
2022/06/05 03:46:41;;;;;;;3.03;2.17;;;;;;;;;;4733117;30;20123;-54
2022/06/05 03:49:08;;;;;;;4.13;2.10;;;;;;;;;;4732990;30;20087;-54
2022/06/05 03:51:36;;;;;;;4.63;2.40;;;;;;;;;;4733271;30;20079;-53
2022/06/05 03:54:03;;;;;;;3.03;2.22;;;;;;;;;;4732029;30;20509;-49
2022/06/05 03:56:31;;;;;;;2.70;2.00;;;;;;;;;;4743291;30;20048;-54
2022/06/05 03:58:58;;;;;;;2.60;2.00;;;;;;;;;;4750580;30;20056;-52
2022/06/05 04:01:26;;;;;;;3.85;2.03;;;;;;;;;;4750538;30;20076;-50
2022/06/05 04:03:54;;;;;;;3.88;2.17;;;;;;;;;;4750737;30;20052;-54
2022/06/05 04:06:27;;;;;;;2.55;2.03;;;;;;;;;;4750619;30;20052;-53
2022/06/05 04:08:56;;;;;;;3.83;1.90;;;;;;;;;;4750525;30;20040;-52
2022/06/05 04:11:26;;;;;;;2.35;1.70;;;;;;;;;;4750589;30;20702;-54
2022/06/05 04:13:53;;;;;;;2.63;1.80;;;;;;;;;;4750522;30;20535;-55
2022/06/05 04:16:26;;;;;;;2.53;1.80;;;;;;;;;;4750677;30;20451;-55
2022/06/05 04:18:53;;;;;;;4.30;2.20;;;;;;;;;;4750467;30;20083;-51
2022/06/05 04:21:23;;;;;;;2.15;1.77;;;;;;;;;;4750424;30;20079;-53
2022/06/05 04:23:51;;;;;;;3.08;1.85;;;;;;;;;;4750522;30;20053;-55
2022/06/05 04:26:27;;;;;;;2.38;2.03;;;;;;;;;;4750510;30;20456;-53
2022/06/05 04:28:54;;;;;;;3.50;1.60;;;;;;;;;;4750570;30;20057;-54
2022/06/05 04:31:27;;;;;;;2.55;1.88;;;;;;;;;;4750386;30;20106;-54
2022/06/05 04:33:58;;;;;;;2.83;2.20;;;;;;;;;;4750320;30;20048;-54
2022/06/05 04:36:25;;;;;;;6.82;1.75;;;;;;;;;;4750315;30;20056;-54
2022/06/05 04:38:52;;;;;;;3.25;1.85;;;;;;;;;;4750215;30;20056;-52
2022/06/05 04:41:21;;;;;;;3.63;1.90;;;;;;;;;;4750381;30;20048;-53
2022/06/05 04:43:49;;;;;;;2.88;1.95;;;;;;;;;;4751415;30;20052;-53
2022/06/05 04:46:18;;;;;;;3.92;1.90;;;;;;;;;;4753746;30;20059;-53
2022/06/05 04:48:46;;;;;;;3.65;1.70;;;;;;;;;;4753377;30;20056;-54
2022/06/05 04:51:14;;;;;;;2.92;1.90;;;;;;;;;;4753535;30;20539;-55
2022/06/05 04:53:43;;;;;;;2.70;1.83;;;;;;;;;;4753446;30;20048;-52
2022/06/05 04:56:17;;;;;;;6.07;2.00;;;;;;;;;;4745431;30;20498;-54
2022/06/05 04:58:44;;;;;;;2.33;1.75;;;;;;;;;;4735480;30;20142;-49
2022/06/05 05:01:23;;;;;;;2.45;1.50;;;;;;;;;;4735729;30;20084;-54
2022/06/05 05:03:56;;;;;;;4.45;1.77;;;;;;;;;;4735787;30;20106;-54
2022/06/05 05:06:24;;;;;;;2.17;1.63;;;;;;;;;;4735741;30;20061;-50
2022/06/05 05:08:52;;;;;;;4.15;1.88;;;;;;;;;;4735483;30;20448;-51
2022/06/05 05:11:20;;;;;;;2.55;1.77;;;;;;;;;;4735482;30;20053;-54
2022/06/05 05:13:47;;;;;;;2.28;1.77;;;;;;;;;;4735804;30;20136;-54
2022/06/05 05:16:15;;;;;;;2.17;1.60;;;;;;;;;;4735443;30;20080;-54
2022/06/05 05:18:42;;;;;;;2.17;1.38;;;;;;;;;;4735362;30;20403;-54
2022/06/05 05:21:14;;;;;;;2.97;1.55;;;;;;;;;;4735284;30;20486;-52
2022/06/05 05:23:42;;;;;;;2.90;1.63;;;;;;;;;;4763601;30;20076;-49
2022/06/05 05:26:22;;;;;;;2.90;1.50;;;;;;;;;;4735245;30;20132;-53
2022/06/05 05:28:50;;;;;;;4.90;1.60;;;;;;;;;;4734021;30;20528;-54
2022/06/05 05:31:20;;;;;;;2.50;1.67;;;;;;;;;;4735257;30;20048;-52
2022/06/05 05:33:49;;;;;;;2.40;1.73;;;;;;;;;;4735298;30;20044;-51
2022/06/05 05:36:18;;;;;;;4.55;1.58;;;;;;;;;;4735191;30;20461;-49
2022/06/05 05:44:19;;;;;;;3.08;1.38;;;;;;;;;;4735217;30;20071;-51
2022/06/05 05:46:49;;;;;;;1.65;1.20;;;;;;;;;;4734768;30;20573;-53
2022/06/05 05:49:16;;;;;;;2.88;1.80;;;;;;;;;;4735061;30;20049;-52
2022/06/05 05:51:43;;;;;;;2.70;1.77;;;;;;;;;;4734991;30;20127;-53
2022/06/05 05:54:11;;;;;;;1.83;1.23;;;;;;;;;;4734712;30;20045;-54
2022/06/05 05:56:39;;;;;;;3.00;1.10;;;;;;;;;;4774059;30;20101;-51
2022/06/05 05:59:07;;;;;;;2.42;1.42;;;;;;;;;;4752282;30;20083;-49
2022/06/05 06:01:34;;;;;;;6.43;1.55;;;;;;;;;;4752267;30;20073;-48
2022/06/05 06:04:02;;;;;;;1.55;1.20;;;;;;;;;;4752247;30;20047;-50
2022/06/05 06:06:33;;;;;;;3.90;1.70;;;;;;;;;;4752164;30;20052;-53
2022/06/05 06:09:00;;;;;;;2.15;1.40;;;;;;;;;;4752236;30;20052;-54
2022/06/05 06:11:28;;;;;;;1.60;1.30;;;;;;;;;;4752341;30;20144;-55
2022/06/05 06:13:55;;;;;;;1.73;1.40;;;;;;;;;;4752032;30;20413;-49
2022/06/05 06:16:22;;;;;;;2.17;1.40;;;;;;;;;;4752001;30;20130;-54
2022/06/05 06:18:50;;;;;;;5.97;1.23;;;;;;;;;;4752000;30;20497;-54
2022/06/05 06:21:17;;;;;;;3.10;1.13;;;;;;;;;;4752061;30;20040;-51
2022/06/05 06:23:44;;;;;;;1.23;1.02;;;;;;;;;;4752049;30;20127;-52
2022/06/05 06:26:12;;;;;;;2.17;1.10;;;;;;;;;;4752041;30;20566;-50
2022/06/05 06:28:39;;;;;;;1.45;0.88;;;;;;;;;;4751848;30;20471;-49
2022/06/05 06:31:09;;;;;;;2.33;0.90;;;;;;;;;;4751982;30;20054;-50
2022/06/05 06:33:37;;;;;;;2.42;1.00;;;;;;;;;;4747052;30;20072;-52
2022/06/05 06:36:09;;;;;;;1.20;0.85;;;;;;;;;;4734030;30;20121;-53
2022/06/05 06:38:56;;;;;;;1.40;0.90;;;;;;;;;;4733878;30;20053;-55
2022/06/05 06:41:24;;;;;;;1.70;1.10;;;;;;;;;;4733998;30;20040;-51
2022/06/05 06:43:51;;;;;;;3.38;0.60;;;;;;;;;;4734011;30;20049;-54
2022/06/05 06:46:19;;;;;;;4.38;0.90;;;;;;;;;;4734092;30;20405;-50
2022/06/05 06:48:47;;;;;;;1.25;0.60;;;;;;;;;;4734046;30;20063;-53
2022/06/05 06:51:16;;;;;;;0.90;0.70;;;;;;;;;;4733837;30;20083;-54
2022/06/05 06:53:44;;;;;;;0.70;0.60;;;;;;;;;;4733845;30;20131;-50
2022/06/05 06:56:20;;;;;;;1.20;0.65;;;;;;;;;;4733872;30;20106;-54
2022/06/05 06:58:53;;;;;;;0.57;0.43;;;;;;;;;;4732402;30;20071;-51
2022/06/05 07:01:21;;;;;;;1.58;0.50;;;;;;;;;;4733842;30;20040;-50
2022/06/05 07:03:49;;;;;;;3.10;0.77;;;;;;;;;;4733755;30;20516;-52
2022/06/05 07:06:16;;;;;;;1.10;0.70;;;;;;;;;;4733404;30;20048;-51
2022/06/05 07:08:44;;;;;;;7.07;0.85;;;;;;;;;;4733466;30;20044;-49
2022/06/05 07:11:14;;;;;;;1.77;0.75;;;;;;;;;;4733899;30;20060;-52
2022/06/05 07:13:46;;;;;;;0.85;0.50;;;;;;;;;;4733528;30;20425;-53
2022/06/05 07:16:14;;;;;;;1.60;1.00;;;;;;;;;;4733636;30;20083;-46
2022/06/05 07:18:43;;;;;;;1.00;0.70;;;;;;;;;;4733391;30;20056;-53
2022/06/05 07:21:17;;;;;;;1.67;0.60;;;;;;;;;;4733802;30;20041;-53
2022/06/05 07:23:44;;;;;;;0.73;0.50;;;;;;;;;;4732602;30;20041;-49
2022/06/05 07:26:14;;;;;;;3.13;0.65;;;;;;;;;;4733648;30;20076;-51
2022/06/05 07:28:41;;;;;;;0.98;0.70;;;;;;;;;;4733438;30;20544;-53
2022/06/05 07:31:11;;;;;;;1.63;0.60;;;;;;;;;;4733286;30;20049;-53
2022/06/05 07:33:39;;;;;;;9.25;5.38;;;;;;;;;;4733404;30;20080;-52
2022/06/05 07:36:11;;;;;;;1.98;0.80;;;;;;;;;;4733125;30;20057;-54
2022/06/05 07:38:39;;;;;;;2.83;1.13;;;;;;;;;;4733137;30;20069;-53
2022/06/05 07:41:14;;;;;;;1.98;0.73;;;;;;;;;;4746591;30;20075;-54
2022/06/05 07:43:42;;;;;;;14.10;8.88;;;;;;;;;;4733432;30;20796;-50
2022/06/05 07:46:10;;;;;;;4.43;1.20;;;;;;;;;;4733526;30;20638;-57
2022/06/05 07:48:37;;;;;;;3.35;0.75;;;;;;;;;;4733099;30;20118;-56
2022/06/05 07:56:40;;;;;;;1.63;0.88;;;;;;;;;;4744258;30;20134;-50
2022/06/05 07:59:07;;;;;;;0.95;0.77;;;;;;;;;;4750441;30;20146;-53
2022/06/05 08:02:00;;;;;;;1.98;1.00;;;;;;;;;;4750553;30;20048;-56
2022/06/05 08:04:27;;;;;;;;;;;;;;;;;;4750766;30;20059;-55
2022/06/05 08:06:57;;;;;;;0.90;0.73;;;;;;;;;;4750589;30;19930;-57
2022/06/05 08:09:25;;;;;;;1.77;0.88;;;;;;;;;;4750653;30;20505;-56
2022/06/05 08:11:53;;;;;;;2.60;1.10;;;;;;;;;;4750314;30;20059;-53
2022/06/05 08:14:21;;;;;;;1.00;0.90;;;;;;;;;;4750470;30;20139;-52
2022/06/05 08:16:49;;;;;;;1.38;0.80;;;;;;;;;;4750410;30;20048;-51
2022/06/05 08:19:21;;;;;;;1.67;0.80;;;;;;;;;;4752199;30;20060;-53
2022/06/05 08:21:51;;;;;;;1.73;0.70;;;;;;;;;;4753985;30;20051;-58
2022/06/05 08:24:20;;;;;;;8.60;2.28;;;;;;;;;;4753806;30;20070;-56
2022/06/05 08:26:48;;;;;;;5.10;2.00;;;;;;;;;;4754036;30;20109;-46
2022/06/05 08:29:16;;;;;;;1.67;0.70;;;;;;;;;;4753829;30;20052;-52
2022/06/05 08:31:43;;;;;;;2.88;0.70;;;;;;;;;;4754182;30;20044;-51
2022/06/05 08:34:12;;;;;;;1.77;0.70;;;;;;;;;;4753805;30;20097;-54
2022/06/05 08:36:39;;;;;;;0.95;0.60;;;;;;;;;;4757602;30;20106;-54
2022/06/05 08:42:02;;;;;;;1.17;0.60;;;;;;;;;;4753599;30;20044;-55
2022/06/05 08:44:29;;;;;;;2.33;1.00;;;;;;;;;;4753570;30;20048;-56
2022/06/05 08:47:21;;;;;;;2.20;0.55;;;;;;;;;;4753580;30;20409;-56
2022/06/05 08:49:53;;;;;;;1.80;0.50;;;;;;;;;;4752503;30;20513;-56
2022/06/05 08:52:35;;;;;;;0.73;0.50;;;;;;;;;;4753540;30;20044;-56
2022/06/05 08:55:21;;;;;;;2.13;0.60;;;;;;;;;;4753430;30;20079;-57
2022/06/05 08:58:03;;;;;;;4.38;0.63;;;;;;;;;;4735732;30;20053;-51
2022/06/05 09:00:36;;;;;;;3.90;1.83;;;;;;;;;;4735439;30;20061;-51
2022/06/05 09:03:27;;;;;;;1.10;0.50;;;;;;;;;;4735708;30;20049;-56
2022/06/05 09:06:04;;;;;;;0.77;0.40;;;;;;;;;;4749124;30;20052;-57
2022/06/05 09:08:36;;;;;;;0.38;0.38;;;;;;;;;;4735521;30;20145;-54
2022/06/05 09:11:07;;;;;;;0.90;0.63;;;;;;;;;;4735531;30;20048;-57
2022/06/05 09:13:59;;;;;;;1.27;0.40;;;;;;;;;;4735591;30;20394;-57
2022/06/05 09:16:29;;;;;;;3.38;0.90;;;;;;;;;;4735343;30;20052;-55
2022/06/05 09:18:58;;;;;;;1.02;0.43;;;;;;;;;;4735659;30;20087;-55
2022/06/05 09:21:37;;;;;;;1.15;0.60;;;;;;;;;;4735144;30;20080;-55
2022/06/05 09:24:15;;;;;;;2.13;0.47;;;;;;;;;;4735467;30;20056;-56
2022/06/05 09:26:50;;;;;;;1.08;0.50;;;;;;;;;;4735316;30;20045;-56
2022/06/05 09:29:43;;;;;;;1.00;0.57;;;;;;;;;;4735132;30;20124;-56
2022/06/05 09:32:40;;;;;;;2.63;0.90;;;;;;;;;;4735440;30;20464;-56
2022/06/05 09:35:48;;;;;;;1.10;0.70;;;;;;;;;;4735243;30;20048;-57
2022/06/05 09:38:22;;;;;;;1.92;0.70;;;;;;;;;;4732491;30;20095;-52
2022/06/05 09:41:06;;;;;;;1.35;0.77;;;;;;;;;;4734906;30;20061;-52
2022/06/05 09:44:14;;;;;;;1.45;0.70;;;;;;;;;;4735134;30;20089;-52
2022/06/05 09:46:58;;;;;;;1.88;0.82;;;;;;;;;;4734634;30;20857;-50
2022/06/05 09:49:36;;;;;;;;;;;;;;;;;;4735290;30;20053;-54
2022/06/05 09:52:17;;;;;;;3.42;1.80;;;;;;;;;;4734742;30;19927;-48
2022/06/05 09:54:55;;;;;;;0.70;0.50;;;;;;;;;;4734702;30;20108;-53
2022/06/05 10:00:44;;;;;;;2.60;0.50;;;;;;;;;;4752335;30;20056;-51
2022/06/05 10:03:13;;;;;;;0.80;0.47;;;;;;;;;;4752267;30;20464;-50
2022/06/05 10:05:45;;;;;;;5.90;3.50;;;;;;;;;;4752200;30;20131;-49
2022/06/05 10:08:19;;;;;;;1.70;0.40;;;;;;;;;;4752240;30;20059;-53
2022/06/05 10:10:48;;;;;;;1.40;0.70;;;;;;;;;;4752189;30;20409;-52
2022/06/05 10:13:30;;;;;;;1.38;0.60;;;;;;;;;;4752230;30;20046;-50
2022/06/05 10:16:13;;;;;;;5.18;0.77;;;;;;;;;;4752067;30;20056;-54
2022/06/05 10:18:50;;;;;;;0.80;0.70;;;;;;;;;;4752021;30;20056;-55
2022/06/05 10:21:22;;;;;;;1.05;0.47;;;;;;;;;;4751956;30;20056;-50
2022/06/05 10:24:15;;;;;;;0.50;0.50;;;;;;;;;;4752017;30;20387;-53
2022/06/05 10:26:48;;;;;;;2.17;0.60;;;;;;;;;;4751884;30;20451;-46
2022/06/05 10:29:38;;;;;;;1.30;0.50;;;;;;;;;;4752001;30;20580;-50
2022/06/05 10:32:25;;;;;;;13.65;10.70;;;;;;;;;;4751689;30;20101;-54
2022/06/05 10:35:30;;;;;;;2.72;1.20;;;;;;;;;;4751999;30;20101;-48
2022/06/05 10:38:29;;;;;;;2.58;1.58;;;;;;;;;;4751199;30;20072;-50
2022/06/05 10:41:05;;;;;;;2.75;0.95;;;;;;;;;;4750999;30;20109;-53
2022/06/05 10:43:33;;;;;;;4.95;0.63;;;;;;;;;;4780023;30;20087;-48
2022/06/05 10:46:05;;;;;;;3.22;0.70;;;;;;;;;;4751700;30;20132;-50
2022/06/05 10:48:49;;;;;;;3.08;0.68;;;;;;;;;;4751419;30;20056;-50
2022/06/05 10:51:38;;;;;;;1.38;0.80;;;;;;;;;;4751482;30;20528;-51
2022/06/05 10:54:23;;;;;;;1.38;0.70;;;;;;;;;;4751590;30;20052;-52
2022/06/05 10:57:00;;;;;;;2.05;0.93;;;;;;;;;;4733551;30;20041;-54
2022/06/05 11:00:05;;;;;;;4.40;1.45;;;;;;;;;;4733607;30;20135;-49
2022/06/05 11:02:41;;;;;;;2.23;0.60;;;;;;;;;;4733708;30;20057;-51
2022/06/05 11:05:32;;;;;;;3.28;0.70;;;;;;;;;;4733888;30;20044;-56
2022/06/05 11:08:05;;;;;;;1.02;0.60;;;;;;;;;;4733575;30;20505;-54
2022/06/05 11:14:03;;;;;;;0.45;0.30;;;;;;;;;;4733622;30;20084;-49
2022/06/05 11:17:13;;;;;;;1.15;0.50;;;;;;;;;;4733506;30;20057;-54
2022/06/05 11:19:41;;;;;;;0.52;0.40;;;;;;;;;;4733266;30;20048;-54
2022/06/05 11:22:14;;;;;;;24.88;21.02;;;;;;;;;;4733430;30;20083;-54
2022/06/05 11:24:49;;;;;;;3.22;0.73;;;;;;;;;;4733332;30;20055;-54
2022/06/05 11:27:33;;;;;;;0.75;0.30;;;;;;;;;;4733460;30;20155;-48
2022/06/05 11:30:35;;;;;;;1.05;0.40;;;;;;;;;;4733462;30;20052;-52
2022/06/05 11:33:25;;;;;;;3.50;0.50;;;;;;;;;;4730723;30;20075;-49
2022/06/05 11:36:17;;;;;;;2.45;0.43;;;;;;;;;;4733471;30;20083;-53
2022/06/05 11:38:51;;;;;;;4.47;3.20;;;;;;;;;;4733171;30;20118;-54
2022/06/05 11:42:03;;;;;;;0.82;0.50;;;;;;;;;;4733263;30;20071;-52
2022/06/05 11:44:55;;;;;;;4.72;0.82;;;;;;;;;;4733294;30;20048;-52
2022/06/05 11:47:50;;;;;;;2.97;0.80;;;;;;;;;;4733291;30;20128;-47
2022/06/05 11:50:51;;;;;;;1.70;0.80;;;;;;;;;;4733323;30;20280;-56
2022/06/05 11:53:39;;;;;;;7.18;1.02;;;;;;;;;;4736338;30;20053;-52
2022/06/05 11:56:33;;;;;;;37.45;21.60;;;;;;;;;;4746222;30;20060;-50
2022/06/05 11:59:07;;;;;;;3.20;0.88;;;;;;;;;;4754156;30;20117;-51
2022/06/05 12:01:43;;;;;;;0.63;0.30;;;;;;;;;;4785184;30;20096;-51
2022/06/05 12:04:17;;;;;;;1.90;0.45;;;;;;;;;;4756479;30;20052;-52
2022/06/05 12:06:49;;;;;;;1.27;0.57;;;;;;;;;;4756565;30;20054;-52
2022/06/05 12:09:22;;;;;;;1.95;0.45;;;;;;;;;;4756294;30;20505;-52
2022/06/05 12:12:17;;;;;;;2.10;0.57;;;;;;;;;;4769997;30;20060;-54
2022/06/05 12:14:50;;;;;;;1.25;0.52;;;;;;;;;;4756515;30;20570;-51
2022/06/05 12:17:41;;;;;;;0.65;0.35;;;;;;;;;;4754870;30;20055;-50
2022/06/05 12:20:17;;;;;;;0.98;0.40;;;;;;;;;;4754546;30;20052;-54
2022/06/05 12:23:02;;;;;;;2.40;0.50;;;;;;;;;;4754774;30;20126;-55
2022/06/05 12:25:44;;;;;;;5.65;2.85;;;;;;;;;;4754892;30;20044;-55
2022/06/05 12:28:17;;;;;;;3.15;1.30;;;;;;;;;;4754901;30;20074;-55
2022/06/05 12:30:56;;;;;;;;;;;;;;;;;;4755306;30;20119;-57
2022/06/05 12:33:30;;;;;;;0.75;0.52;;;;;;;;;;4755463;30;20019;-55
2022/06/05 12:36:05;;;;;;;;;;;;;;;;;;4756896;30;20063;-45
2022/06/05 12:38:45;;;;;;;2.35;0.55;;;;;;;;;;4756339;30;20016;-46
2022/06/05 12:41:44;;;;;;;2.70;0.55;;;;;;;;;;4756101;30;20056;-56
2022/06/05 12:44:32;;;;;;;1.13;0.40;;;;;;;;;;4754045;30;20064;-56
2022/06/05 12:47:18;;;;;;;1.60;0.50;;;;;;;;;;4756309;30;20071;-56
2022/06/05 12:49:54;;;;;;;0.70;0.50;;;;;;;;;;4756198;30;20517;-56
2022/06/05 12:52:31;;;;;;;1.63;0.60;;;;;;;;;;4756126;30;20105;-56
2022/06/05 12:55:14;;;;;;;2.58;0.68;;;;;;;;;;4756221;30;20052;-57
2022/06/05 12:57:44;;;;;;;1.05;0.47;;;;;;;;;;4720834;30;20084;-57
2022/06/05 13:00:18;;;;;;;2.92;0.65;;;;;;;;;;4720733;30;20057;-53
2022/06/05 13:02:53;;;;;;;;;;;;;;;;;;4721182;30;20568;-57
2022/06/05 13:05:38;;;;;;;1.75;0.45;;;;;;;;;;4718284;30;19927;-53
2022/06/05 13:08:14;;;;;;;1.83;0.52;;;;;;;;;;4718358;30;20131;-57
2022/06/05 13:10:50;;;;;;;1.17;0.50;;;;;;;;;;4718114;30;20131;-57
2022/06/05 13:13:17;;;;;;;5.32;0.50;;;;;;;;;;4718289;30;20079;-56
2022/06/05 13:15:51;;;;;;;3.40;0.68;;;;;;;;;;4718071;30;20579;-57
2022/06/05 13:18:35;;;;;;;1.90;0.40;;;;;;;;;;4716659;30;20057;-56
2022/06/05 13:21:15;;;;;;;;;;;;;;;;;;4718143;30;20137;-55
2022/06/05 13:24:08;;;;;;;1.98;0.43;;;;;;;;;;4717976;30;19977;-58
2022/06/05 13:26:53;;;;;;;0.60;0.50;;;;;;;;;;4716040;30;20064;-55
2022/06/05 13:29:58;;;;;;;1.92;0.60;;;;;;;;;;4717828;30;20057;-57
2022/06/05 13:32:55;;;;;;;0.55;0.47;;;;;;;;;;4717625;30;20144;-52
2022/06/05 13:35:35;;;;;;;1.20;0.50;;;;;;;;;;4715587;30;20063;-57
2022/06/05 13:38:07;;;;;;;2.05;0.95;;;;;;;;;;4716958;30;20132;-57
2022/06/05 13:40:59;;;;;;;6.00;2.03;;;;;;;;;;4717431;30;20041;-52
2022/06/05 13:43:33;;;;;;;4.65;1.60;;;;;;;;;;4717976;30;20045;-53
2022/06/05 13:46:05;;;;;;;1.75;0.50;;;;;;;;;;4717500;30;20099;-57
2022/06/05 13:48:47;;;;;;;3.83;0.70;;;;;;;;;;4717639;30;20049;-57
2022/06/05 13:51:25;;;;;;;2.50;0.50;;;;;;;;;;4717482;30;20049;-54
2022/06/05 13:54:14;;;;;;;1.17;0.52;;;;;;;;;;4717374;30;20041;-55
2022/06/05 13:56:53;;;;;;;1.55;0.73;;;;;;;;;;4738685;30;20056;-57
2022/06/05 13:59:49;;;;;;;1.83;0.90;;;;;;;;;;4749493;30;20125;-58
2022/06/05 14:02:29;;;;;;;1.60;0.50;;;;;;;;;;4750671;30;20080;-57
2022/06/05 14:05:18;;;;;;;1.27;0.50;;;;;;;;;;4750738;30;20055;-57
2022/06/05 14:07:51;;;;;;;0.73;0.50;;;;;;;;;;4750514;30;20064;-56
2022/06/05 14:10:46;;;;;;;0.95;0.40;;;;;;;;;;4751284;30;20467;-58
2022/06/05 14:13:15;;;;;;;1.98;0.43;;;;;;;;;;4751980;30;20051;-54
2022/06/05 14:15:47;;;;;;;2.45;0.70;;;;;;;;;;4751596;30;20045;-57
2022/06/05 14:18:37;;;;;;;1.85;0.40;;;;;;;;;;4751942;30;20044;-57
2022/06/05 14:21:06;;;;;;;1.83;0.50;;;;;;;;;;4752015;30;20044;-57
2022/06/05 14:23:34;;;;;;;0.70;0.40;;;;;;;;;;4751819;30;20119;-57
2022/06/05 14:26:04;;;;;;;0.60;0.60;;;;;;;;;;4752111;30;20119;-56
2022/06/05 14:28:40;;;;;;;6.93;3.20;;;;;;;;;;4751843;30;20406;-56
2022/06/05 14:31:19;;;;;;;1.10;0.55;;;;;;;;;;4751917;30;20433;-57
2022/06/05 14:33:58;;;;;;;0.90;0.50;;;;;;;;;;4751838;30;20525;-57
2022/06/05 14:36:41;;;;;;;1.83;0.55;;;;;;;;;;4752090;30;20071;-57
2022/06/05 14:39:31;;;;;;;3.15;0.60;;;;;;;;;;4751928;30;20056;-57
2022/06/05 14:42:14;;;;;;;1.90;0.85;;;;;;;;;;4751720;30;20059;-57
2022/06/05 14:44:57;;;;;;;1.40;0.95;;;;;;;;;;4751664;30;20056;-58
2022/06/05 14:47:45;;;;;;;2.08;0.85;;;;;;;;;;4751395;30;20044;-57
2022/06/05 14:50:20;;;;;;;1.27;0.60;;;;;;;;;;4750459;30;20497;-57
2022/06/05 14:53:00;;;;;;;0.60;0.50;;;;;;;;;;4751404;30;20416;-58
2022/06/05 14:58:59;;;;;;;1.42;0.70;;;;;;;;;;4733766;30;20509;-57
2022/06/05 15:01:53;;;;;;;4.70;0.73;;;;;;;;;;4733561;30;20056;-57
2022/06/05 15:04:32;;;;;;;0.98;0.70;;;;;;;;;;4733894;30;20096;-53
2022/06/05 15:07:10;;;;;;;0.95;0.57;;;;;;;;;;4733894;30;20044;-57
2022/06/05 15:09:43;;;;;;;0.40;0.40;;;;;;;;;;4733511;30;20045;-57
2022/06/05 15:12:16;;;;;;;;;;;;;;;;;;4734168;30;20130;-54
2022/06/05 15:14:48;;;;;;;1.63;0.60;;;;;;;;;;4733630;30;20446;-57
2022/06/05 15:17:37;;;;;;;1.05;0.40;;;;;;;;;;4733618;30;20127;-57
2022/06/05 15:20:10;;;;;;;0.50;0.50;;;;;;;;;;4733606;30;20041;-56
2022/06/05 15:23:07;;;;;;;0.50;0.40;;;;;;;;;;4733465;30;20052;-57
2022/06/05 15:25:34;;;;;;;1.75;0.40;;;;;;;;;;4733528;30;20410;-57
2022/06/05 15:28:16;;;;;;;0.65;0.40;;;;;;;;;;4732977;30;20056;-57
2022/06/05 15:31:17;;;;;;;2.15;0.50;;;;;;;;;;4733404;30;20053;-57
2022/06/05 15:33:57;;;;;;;2.70;0.55;;;;;;;;;;4733401;30;20079;-55
2022/06/05 15:36:46;;;;;;;0.47;0.47;;;;;;;;;;4735269;30;20040;-57
2022/06/05 15:39:22;;;;;;;2.60;0.88;;;;;;;;;;4733995;30;20052;-58
2022/06/05 15:42:23;;;;;;;2.70;0.70;;;;;;;;;;4733180;30;20502;-57
2022/06/05 15:45:03;;;;;;;2.08;1.20;;;;;;;;;;4733124;30;20048;-57
2022/06/05 15:47:48;;;;;;;3.00;1.20;;;;;;;;;;4733200;30;20045;-58
2022/06/05 15:50:16;;;;;;;1.55;0.90;;;;;;;;;;4733142;30;20804;-58
2022/06/05 15:52:59;;;;;;;2.97;1.05;;;;;;;;;;4733162;30;20049;-58
2022/06/05 15:56:03;;;;;;;1.65;1.00;;;;;;;;;;4735761;30;20048;-55
2022/06/05 15:58:39;;;;;;;1.52;0.70;;;;;;;;;;4750493;30;20059;-59
2022/06/05 16:01:21;;;;;;;7.63;1.80;;;;;;;;;;4750679;30;20079;-57
2022/06/05 16:03:54;;;;;;;9.18;5.97;;;;;;;;;;4750613;30;20301;-56
2022/06/05 16:06:25;;;;;;;;;;;;;;;;;;4751215;30;20126;-52
2022/06/05 16:09:17;;;;;;;2.00;0.70;;;;;;;;;;4750531;30;20002;-53